Time;durP1;ratioP1;P1;durP2;ratioP2;P2;SDS_P1;SDS_P2;PMS_P1;PMS_P2;Temp;Humidity;BMP_temperature;BMP_pressure;BME280_temperature;BME280_humidity;BME280_pressure;Samples;Min_cycle;Max_cycle;Signal;HPM_P1;HPM_P2
2024/03/02 00:01:44;;;;;;;56.38;32.63;;;10.90;99.90;;;;;;6240491;23;20016;-69
2024/03/02 00:04:30;;;;;;;50.40;35.15;;;10.80;99.90;;;;;;6240209;23;20396;-69
2024/03/02 00:07:16;;;;;;;47.22;33.58;;;10.90;99.90;;;;;;6239540;23;20408;-69
2024/03/02 00:10:10;;;;;;;53.00;34.33;;;10.90;99.90;;;;;;6241332;23;20012;-70
2024/03/02 00:12:56;;;;;;;53.90;35.53;;;10.90;99.90;;;;;;6241437;23;20004;-69
2024/03/02 00:15:46;;;;;;;52.85;34.85;;;10.90;99.90;;;;;;6242010;23;20090;-70
2024/03/02 00:18:34;;;;;;;50.75;33.00;;;10.90;99.90;;;;;;6238339;23;20034;-69
2024/03/02 00:21:22;;;;;;;49.90;34.67;;;10.90;99.90;;;;;;6241566;23;20102;-70
2024/03/02 00:24:24;;;;;;;52.50;33.97;;;10.90;99.90;;;;;;6241592;23;20111;-69
2024/03/02 00:27:14;;;;;;;48.40;32.65;;;10.90;99.90;;;;;;6241541;23;20011;-70
2024/03/02 00:30:01;;;;;;;48.95;32.92;;;10.90;99.90;;;;;;6240279;23;20459;-70
2024/03/02 00:32:47;;;;;;;51.40;32.85;;;10.90;99.90;;;;;;6238906;23;20030;-70
2024/03/02 00:35:33;;;;;;;44.47;32.42;;;10.90;99.90;;;;;;6241973;23;20012;-70
2024/03/02 00:38:19;;;;;;;49.65;31.88;;;10.90;99.90;;;;;;6238332;23;20078;-69
2024/03/02 00:41:08;;;;;;;52.97;34.33;;;10.90;99.90;;;;;;6218889;23;20016;-69
2024/03/02 00:43:57;;;;;;;52.65;35.08;;;11.00;99.90;;;;;;6239755;23;20046;-70
2024/03/02 00:46:44;;;;;;;55.25;34.85;;;11.00;99.90;;;;;;6240956;23;20016;-69
2024/03/02 00:49:30;;;;;;;52.45;33.80;;;11.00;99.90;;;;;;6217854;23;20122;-69
2024/03/02 00:52:15;;;;;;;52.35;34.15;;;11.00;99.90;;;;;;6220242;23;20015;-70
2024/03/02 00:55:02;;;;;;;59.15;37.83;;;11.00;99.90;;;;;;6238733;23;20378;-69
2024/03/02 00:57:48;;;;;;;54.05;34.70;;;11.00;99.90;;;;;;6240568;23;20040;-70
2024/03/02 01:00:33;;;;;;;50.15;33.72;;;11.10;99.90;;;;;;6239165;23;20433;-69
2024/03/02 01:03:19;;;;;;;51.92;33.50;;;11.10;99.90;;;;;;6221132;23;20385;-69
2024/03/02 01:06:07;;;;;;;54.70;34.03;;;11.10;99.90;;;;;;6253487;23;20020;-68
2024/03/02 01:08:53;;;;;;;60.42;34.92;;;11.10;99.90;;;;;;6264341;23;20008;-70
2024/03/02 01:11:39;;;;;;;62.47;35.13;;;11.10;99.90;;;;;;6240904;23;20008;-70
2024/03/02 01:14:25;;;;;;;56.30;34.75;;;11.10;99.90;;;;;;6257930;23;20012;-70
2024/03/02 01:17:11;;;;;;;50.60;33.20;;;11.00;99.90;;;;;;6257008;23;20461;-69
2024/03/02 01:19:57;;;;;;;50.17;32.08;;;11.00;99.90;;;;;;6263592;23;20016;-70
2024/03/02 01:22:43;;;;;;;51.22;34.75;;;11.10;99.90;;;;;;6263147;23;20051;-69
2024/03/02 01:25:29;;;;;;;51.20;34.58;;;11.10;99.90;;;;;;6263985;23;20019;-70
2024/03/02 01:28:15;;;;;;;56.03;34.22;;;11.10;99.90;;;;;;6224134;23;20012;-70
2024/03/02 01:31:02;;;;;;;48.47;33.80;;;11.10;99.90;;;;;;6241397;23;20008;-70
2024/03/02 01:33:47;;;;;;;50.53;33.75;;;11.00;99.90;;;;;;6241351;23;20012;-70
2024/03/02 01:36:34;;;;;;;48.10;32.47;;;11.10;99.90;;;;;;6220029;23;20066;-70
2024/03/02 01:39:20;;;;;;;50.42;33.80;;;11.10;99.90;;;;;;6242854;23;20011;-70
2024/03/02 01:42:06;;;;;;;50.30;34.08;;;11.00;99.90;;;;;;6242879;23;20043;-69
2024/03/02 01:44:52;;;;;;;51.85;34.55;;;11.00;99.90;;;;;;6241108;23;20011;-70
2024/03/02 01:47:38;;;;;;;50.25;32.97;;;11.10;99.90;;;;;;6242599;23;20023;-71
2024/03/02 01:50:32;;;;;;;52.30;34.70;;;11.10;99.90;;;;;;6239629;23;20008;-70
2024/03/02 01:53:19;;;;;;;50.97;33.65;;;11.00;99.90;;;;;;6240815;23;20385;-72
2024/03/02 01:56:05;;;;;;;49.92;33.03;;;11.00;99.90;;;;;;6242409;23;20004;-69
2024/03/02 01:58:51;;;;;;;51.60;35.65;;;11.10;99.90;;;;;;6243501;23;20470;-70
2024/03/02 02:01:37;;;;;;;49.17;33.65;;;11.10;99.90;;;;;;6242216;23;20058;-69
2024/03/02 02:04:27;;;;;;;50.25;32.70;;;11.10;99.90;;;;;;6241314;23;20028;-68
2024/03/02 02:07:14;;;;;;;52.60;34.22;;;11.00;99.90;;;;;;6248590;23;20016;-68
2024/03/02 02:10:01;;;;;;;54.00;34.75;;;11.00;99.90;;;;;;6261954;23;20000;-69
2024/03/02 02:12:46;;;;;;;52.35;34.72;;;11.00;99.90;;;;;;6245164;23;20015;-70
2024/03/02 02:15:34;;;;;;;51.63;35.33;;;11.00;99.90;;;;;;6245060;23;20008;-70
2024/03/02 02:18:20;;;;;;;53.08;33.60;;;11.00;99.90;;;;;;6243923;23;20008;-70
2024/03/02 02:21:06;;;;;;;50.53;33.17;;;11.00;99.90;;;;;;6256021;23;20008;-70
2024/03/02 02:23:52;;;;;;;54.97;35.42;;;11.00;99.90;;;;;;6269317;23;19996;-73
2024/03/02 02:26:38;;;;;;;56.13;34.85;;;11.00;99.90;;;;;;6268118;23;20019;-73
2024/03/02 02:29:24;;;;;;;50.90;34.67;;;11.00;99.90;;;;;;6268997;23;20012;-72
2024/03/02 02:32:10;;;;;;;47.10;33.67;;;11.00;99.90;;;;;;6268672;23;20048;-71
2024/03/02 02:34:56;;;;;;;50.13;35.22;;;10.90;99.90;;;;;;6269400;22;20036;-68
2024/03/02 02:37:43;;;;;;;54.22;34.17;;;10.90;99.90;;;;;;6247834;23;20059;-67
2024/03/02 02:40:30;;;;;;;53.65;33.33;;;11.00;99.90;;;;;;6269830;23;20008;-67
2024/03/02 02:43:16;;;;;;;52.95;33.65;;;11.00;99.90;;;;;;6268311;22;20008;-67
2024/03/02 02:46:02;;;;;;;54.45;36.95;;;11.00;99.90;;;;;;6265406;23;20039;-68
2024/03/02 02:48:48;;;;;;;51.00;34.28;;;11.00;99.90;;;;;;6258271;23;20004;-68
2024/03/02 02:51:34;;;;;;;48.92;33.85;;;10.90;99.90;;;;;;6255767;23;20019;-68
2024/03/02 02:54:20;;;;;;;54.60;36.22;;;10.90;99.90;;;;;;6225014;23;20008;-66
2024/03/02 02:57:06;;;;;;;45.85;32.42;;;10.90;99.90;;;;;;6239661;23;20008;-66
2024/03/02 02:59:52;;;;;;;49.72;34.65;;;10.90;99.90;;;;;;6254491;23;20020;-67
2024/03/02 03:02:38;;;;;;;50.90;34.20;;;10.90;99.90;;;;;;6244973;23;20444;-67
2024/03/02 03:05:24;;;;;;;49.85;32.85;;;10.90;99.90;;;;;;6244939;23;20527;-67
2024/03/02 03:08:10;;;;;;;50.55;33.90;;;10.90;99.90;;;;;;6241135;23;20005;-67
2024/03/02 03:10:56;;;;;;;57.45;34.58;;;10.90;99.90;;;;;;6239922;23;20090;-67
2024/03/02 03:13:42;;;;;;;43.42;32.13;;;10.90;99.90;;;;;;6248227;23;20353;-67
2024/03/02 03:16:28;;;;;;;50.10;34.25;;;10.90;99.90;;;;;;6249776;23;20492;-68
2024/03/02 03:19:14;;;;;;;53.35;36.05;;;10.90;99.90;;;;;;6252734;23;20508;-66
2024/03/02 03:22:00;;;;;;;51.38;31.35;;;10.90;99.90;;;;;;6233042;23;20016;-67
2024/03/02 03:24:46;;;;;;;45.55;31.92;;;10.90;99.90;;;;;;6257733;23;20009;-66
2024/03/02 03:27:32;;;;;;;49.78;33.67;;;10.90;99.90;;;;;;6258946;23;20012;-66
2024/03/02 03:30:18;;;;;;;46.97;32.03;;;10.90;99.90;;;;;;6255018;23;20032;-66
2024/03/02 03:33:08;;;;;;;50.47;34.83;;;10.90;99.90;;;;;;6244915;23;20408;-67
2024/03/02 03:35:54;;;;;;;50.20;32.80;;;10.90;99.90;;;;;;6244443;23;20020;-67
2024/03/02 03:38:40;;;;;;;57.70;33.85;;;11.00;99.90;;;;;;6241189;23;20047;-66
2024/03/02 03:41:26;;;;;;;45.60;32.08;;;10.90;99.90;;;;;;6242855;23;20032;-68
2024/03/02 03:44:12;;;;;;;50.00;33.17;;;10.90;99.90;;;;;;6258769;23;20012;-66
2024/03/02 03:46:58;;;;;;;51.75;31.27;;;11.00;99.90;;;;;;6258779;23;20020;-66
2024/03/02 03:49:44;;;;;;;44.95;29.92;;;11.00;99.90;;;;;;6261786;23;20059;-66
2024/03/02 03:52:30;;;;;;;47.28;33.00;;;11.00;99.90;;;;;;6259876;23;20038;-66
2024/03/02 03:55:16;;;;;;;46.53;31.58;;;11.00;99.90;;;;;;6259937;23;20011;-66
2024/03/02 03:58:01;;;;;;;46.58;31.73;;;11.00;99.90;;;;;;6261213;23;20035;-66
2024/03/02 04:00:47;;;;;;;48.92;32.03;;;11.00;99.90;;;;;;6262620;23;20079;-66
2024/03/02 04:03:33;;;;;;;47.45;32.08;;;11.10;99.90;;;;;;6265155;23;20004;-67
2024/03/02 04:06:19;;;;;;;42.22;30.85;;;11.10;99.90;;;;;;6245176;23;20020;-66
2024/03/02 04:09:05;;;;;;;43.92;31.33;;;11.10;99.90;;;;;;6263403;23;19989;-67
2024/03/02 04:11:51;;;;;;;44.08;30.10;;;11.00;99.90;;;;;;6262478;23;20059;-66
2024/03/02 04:14:37;;;;;;;48.50;31.67;;;11.10;99.90;;;;;;6254898;23;20390;-66
2024/03/02 04:17:23;;;;;;;47.75;32.83;;;11.10;99.90;;;;;;6244070;23;20012;-66
2024/03/02 04:20:12;;;;;;;45.83;30.65;;;11.10;99.90;;;;;;6243498;23;20113;-66
2024/03/02 04:22:58;;;;;;;44.78;30.23;;;11.10;99.90;;;;;;6244690;23;20012;-67
2024/03/02 04:25:44;;;;;;;43.20;29.20;;;11.10;99.90;;;;;;6239294;23;20047;-66
2024/03/02 04:28:30;;;;;;;42.67;29.70;;;11.10;99.90;;;;;;6241406;23;20056;-65
2024/03/02 04:31:16;;;;;;;40.20;28.50;;;11.20;99.90;;;;;;6240652;23;20111;-66
2024/03/02 04:34:02;;;;;;;43.13;29.17;;;11.20;99.90;;;;;;6242911;23;20030;-66
2024/03/02 04:36:48;;;;;;;44.60;28.80;;;11.10;99.90;;;;;;6240102;23;20045;-65
2024/03/02 04:39:35;;;;;;;42.58;28.33;;;11.10;99.90;;;;;;6241371;23;20035;-65
2024/03/02 04:42:22;;;;;;;43.05;28.55;;;11.20;99.90;;;;;;6240927;23;20008;-66
2024/03/02 04:45:08;;;;;;;36.78;26.45;;;11.20;99.90;;;;;;6241345;23;20016;-66
2024/03/02 04:47:54;;;;;;;43.38;27.70;;;11.20;99.90;;;;;;6240356;23;20433;-67
2024/03/02 04:50:40;;;;;;;36.88;27.35;;;11.20;99.90;;;;;;6218104;23;20087;-66
2024/03/02 04:53:26;;;;;;;37.72;25.85;;;11.30;99.90;;;;;;6240858;23;20341;-68
2024/03/02 04:59:17;;;;;;;36.75;25.90;;;11.20;99.90;;;;;;6239576;23;20008;-68
2024/03/02 05:02:03;;;;;;;37.75;27.20;;;11.20;99.90;;;;;;6239299;23;20142;-68
2024/03/02 05:04:49;;;;;;;38.53;26.02;;;11.30;99.90;;;;;;6240813;23;20390;-69
2024/03/02 05:07:35;;;;;;;36.58;26.23;;;11.30;99.90;;;;;;6238839;23;20408;-68
2024/03/02 05:10:21;;;;;;;39.50;27.33;;;11.30;99.90;;;;;;6241561;23;20005;-68
2024/03/02 05:13:07;;;;;;;39.10;27.55;;;11.30;99.90;;;;;;6218288;23;20086;-67
2024/03/02 05:15:53;;;;;;;36.75;25.35;;;11.30;99.90;;;;;;6241215;23;20024;-66
2024/03/02 05:18:39;;;;;;;37.13;25.70;;;11.30;99.90;;;;;;6247277;23;20012;-66
2024/03/02 05:21:25;;;;;;;38.33;25.95;;;11.30;99.90;;;;;;6245411;23;20040;-66
2024/03/02 05:24:11;;;;;;;35.63;25.02;;;11.30;99.90;;;;;;6238040;23;20455;-65
2024/03/02 05:26:57;;;;;;;37.50;25.77;;;11.40;99.90;;;;;;6239671;23;20015;-64
2024/03/02 05:29:42;;;;;;;32.25;24.20;;;11.40;99.90;;;;;;6239422;23;20376;-64
2024/03/02 05:32:28;;;;;;;35.50;25.00;;;11.30;99.90;;;;;;6241075;23;20344;-65
2024/03/02 05:35:15;;;;;;;36.03;25.52;;;11.30;99.90;;;;;;6242962;23;20118;-64
2024/03/02 05:38:01;;;;;;;39.65;25.63;;;11.30;99.90;;;;;;6242478;23;20023;-64
2024/03/02 05:40:46;;;;;;;39.25;26.50;;;11.30;99.90;;;;;;6238952;23;20344;-65
2024/03/02 05:43:32;;;;;;;35.28;24.90;;;11.30;99.90;;;;;;6242254;23;20445;-65
2024/03/02 05:46:18;;;;;;;37.15;26.50;;;11.30;99.90;;;;;;6239725;23;20402;-64
2024/03/02 05:49:04;;;;;;;39.22;27.33;;;11.30;99.90;;;;;;6238820;23;20008;-65
2024/03/02 05:51:50;;;;;;;36.13;26.25;;;11.30;99.90;;;;;;6240844;23;20040;-64
2024/03/02 05:54:36;;;;;;;40.72;28.23;;;11.30;99.90;;;;;;6243967;23;20008;-64
2024/03/02 05:57:38;;;;;;;38.10;28.25;;;11.30;99.90;;;;;;6240913;23;20008;-64
2024/03/02 06:00:24;;;;;;;40.08;28.30;;;11.30;99.90;;;;;;6243083;23;20031;-64
2024/03/02 06:03:10;;;;;;;42.13;28.02;;;11.30;99.90;;;;;;6242852;23;20149;-64
2024/03/02 06:05:56;;;;;;;45.03;29.48;;;11.30;99.90;;;;;;6240843;23;20024;-64
2024/03/02 06:08:42;;;;;;;43.35;29.67;;;11.30;99.90;;;;;;6241934;23;20033;-64
2024/03/02 06:11:28;;;;;;;43.17;29.55;;;11.30;99.90;;;;;;6219186;23;20020;-65
2024/03/02 06:14:14;;;;;;;42.70;29.80;;;11.20;99.90;;;;;;6239230;23;20012;-63
2024/03/02 06:17:00;;;;;;;45.75;28.15;;;11.20;99.90;;;;;;6239941;23;20070;-65
2024/03/02 06:19:46;;;;;;;42.42;29.63;;;11.30;99.90;;;;;;6240655;23;20086;-64
2024/03/02 06:22:32;;;;;;;46.13;30.77;;;11.30;99.90;;;;;;6244458;23;20008;-64
2024/03/02 06:25:18;;;;;;;44.88;30.65;;;11.30;99.90;;;;;;6221340;23;20051;-65
2024/03/02 06:28:04;;;;;;;45.22;31.23;;;11.30;99.90;;;;;;6241876;23;20012;-65
2024/03/02 06:30:50;;;;;;;48.13;30.88;;;11.30;99.90;;;;;;6241249;23;20004;-65
2024/03/02 06:33:36;;;;;;;47.63;30.02;;;11.30;99.90;;;;;;6241254;23;20059;-65
2024/03/02 06:36:23;;;;;;;42.63;30.40;;;11.30;99.90;;;;;;6239173;23;20429;-64
2024/03/02 06:39:10;;;;;;;43.38;30.52;;;11.30;99.90;;;;;;6242970;23;20012;-64
2024/03/02 06:41:56;;;;;;;45.45;30.40;;;11.30;99.90;;;;;;6245353;23;20016;-65
2024/03/02 06:44:41;;;;;;;42.92;29.30;;;11.30;99.90;;;;;;6240484;23;20043;-65
2024/03/02 06:47:27;;;;;;;47.58;31.23;;;11.30;99.90;;;;;;6240487;23;20012;-62
2024/03/02 06:50:14;;;;;;;49.80;32.40;;;11.30;99.90;;;;;;6242900;23;20012;-65
2024/03/02 06:53:00;;;;;;;50.10;33.03;;;11.30;99.90;;;;;;6240928;23;20011;-64
2024/03/02 06:55:46;;;;;;;50.03;30.55;;;11.30;99.90;;;;;;6241791;23;20008;-63
2024/03/02 06:58:32;;;;;;;46.90;29.98;;;11.30;99.90;;;;;;6240811;23;20008;-65
2024/03/02 07:01:20;;;;;;;49.42;32.92;;;11.40;99.90;;;;;;6240477;23;20024;-63
2024/03/02 07:04:06;;;;;;;53.88;31.08;;;11.30;99.90;;;;;;6220387;22;20016;-63
2024/03/02 07:06:52;;;;;;;54.70;33.10;;;11.30;99.90;;;;;;6245130;23;20008;-64
2024/03/02 07:09:38;;;;;;;48.75;30.25;;;11.30;99.90;;;;;;6240192;23;20099;-63
2024/03/02 07:12:24;;;;;;;49.15;32.10;;;11.30;99.90;;;;;;6240984;23;20012;-64
2024/03/02 07:16:12;;;;;;;49.30;31.50;;;11.30;99.90;;;;;;6240504;23;20066;-64
2024/03/02 07:18:19;;;;;;;44.75;29.25;;;11.40;99.90;;;;;;6242979;23;20460;-67
2024/03/02 07:21:05;;;;;;;49.55;33.00;;;11.30;99.90;;;;;;6237567;23;20352;-63
2024/03/02 07:23:51;;;;;;;43.17;29.25;;;11.30;99.90;;;;;;6242672;23;20083;-63
2024/03/02 07:26:37;;;;;;;42.33;30.63;;;11.40;99.90;;;;;;6216179;23;20012;-65
2024/03/02 07:29:24;;;;;;;49.45;30.48;;;11.40;99.90;;;;;;6238586;23;20015;-64
2024/03/02 07:32:10;;;;;;;43.55;28.80;;;11.40;99.90;;;;;;6234604;23;20090;-63
2024/03/02 07:34:56;;;;;;;43.22;29.20;;;11.40;99.90;;;;;;6234550;23;20364;-62
2024/03/02 07:37:42;;;;;;;46.72;30.33;;;11.40;99.90;;;;;;6235698;23;20012;-64
2024/03/02 07:40:28;;;;;;;46.70;30.83;;;11.40;99.90;;;;;;6235735;23;20027;-64
2024/03/02 07:43:14;;;;;;;48.38;31.67;;;11.40;99.90;;;;;;6238655;23;20095;-63
2024/03/02 07:46:00;;;;;;;49.53;32.30;;;11.40;99.90;;;;;;6234013;23;20023;-64
2024/03/02 07:48:47;;;;;;;46.53;29.70;;;11.50;99.90;;;;;;6235514;23;20012;-62
2024/03/02 07:51:33;;;;;;;44.88;28.90;;;11.50;99.90;;;;;;6241245;23;20399;-63
2024/03/02 07:54:19;;;;;;;48.50;29.45;;;11.50;99.90;;;;;;6240378;23;20091;-63
2024/03/02 07:57:05;;;;;;;47.00;29.15;;;11.50;99.90;;;;;;6239311;23;20368;-63
2024/03/02 07:59:51;;;;;;;42.58;28.98;;;11.50;99.90;;;;;;6239399;23;20480;-63
2024/03/02 08:02:37;;;;;;;40.00;28.08;;;11.50;99.90;;;;;;6215836;23;20009;-63
2024/03/02 08:05:23;;;;;;;52.58;31.40;;;11.50;99.90;;;;;;6239265;23;20412;-63
2024/03/02 08:08:09;;;;;;;48.28;31.42;;;11.60;99.90;;;;;;6240253;23;20441;-63
2024/03/02 08:10:55;;;;;;;46.88;29.55;;;11.60;99.90;;;;;;6240044;23;20012;-63
2024/03/02 08:13:41;;;;;;;44.13;31.17;;;11.60;99.90;;;;;;6241756;23;20016;-62
2024/03/02 08:16:27;;;;;;;44.85;30.70;;;11.60;99.90;;;;;;6215263;23;20103;-64
2024/03/02 08:19:13;;;;;;;47.30;30.65;;;11.60;99.90;;;;;;6239406;23;20329;-63
2024/03/02 08:21:59;;;;;;;48.10;28.95;;;11.60;99.90;;;;;;6245364;23;20034;-62
2024/03/02 08:24:45;;;;;;;47.00;29.65;;;11.70;99.90;;;;;;6253254;23;20019;-61
2024/03/02 08:27:32;;;;;;;43.38;28.95;;;11.70;99.90;;;;;;6250506;23;20000;-62
2024/03/02 08:30:18;;;;;;;42.25;28.58;;;11.70;99.90;;;;;;6240230;23;20015;-63
2024/03/02 08:33:05;;;;;;;44.38;27.98;;;11.80;99.90;;;;;;6245713;23;20058;-63
2024/03/02 08:35:52;;;;;;;38.22;27.10;;;11.80;99.90;;;;;;6241578;23;20441;-62
2024/03/02 08:38:38;;;;;;;41.38;27.30;;;11.70;99.90;;;;;;6239925;23;20609;-61
2024/03/02 08:41:24;;;;;;;42.20;27.92;;;11.80;99.90;;;;;;6238592;23;20028;-61
2024/03/02 08:44:10;;;;;;;42.60;29.27;;;11.80;99.90;;;;;;6239668;23;20004;-62
2024/03/02 08:46:56;;;;;;;36.42;24.92;;;11.80;99.90;;;;;;6241285;23;20008;-62
2024/03/02 08:49:42;;;;;;;42.45;27.85;;;11.80;99.90;;;;;;6239467;23;20078;-62
2024/03/02 08:52:29;;;;;;;38.00;27.05;;;11.80;99.90;;;;;;6238434;23;20047;-62
2024/03/02 08:55:14;;;;;;;38.60;25.95;;;11.90;99.90;;;;;;6242896;23;20036;-62
2024/03/02 08:58:00;;;;;;;36.25;25.83;;;11.90;99.90;;;;;;6238888;23;20138;-62
2024/03/02 09:00:50;;;;;;;37.15;25.27;;;11.90;99.90;;;;;;6218336;23;20028;-62
2024/03/02 09:03:37;;;;;;;40.65;26.45;;;11.90;99.90;;;;;;6240262;23;20040;-62
2024/03/02 09:06:23;;;;;;;40.13;26.95;;;11.90;99.90;;;;;;6242335;23;20070;-61
2024/03/02 09:09:09;;;;;;;39.53;27.27;;;11.90;99.90;;;;;;6239324;23;20047;-61
2024/03/02 09:11:57;;;;;;;41.95;28.85;;;12.00;99.90;;;;;;6238074;23;20019;-61
2024/03/02 09:14:43;;;;;;;42.72;27.13;;;12.00;99.90;;;;;;6240565;23;20016;-61
2024/03/02 09:17:30;;;;;;;39.85;27.20;;;12.00;99.90;;;;;;6242615;23;20015;-60
2024/03/02 09:20:16;;;;;;;44.08;28.48;;;12.00;99.90;;;;;;6239957;23;20024;-61
2024/03/02 09:23:02;;;;;;;44.60;28.67;;;12.00;99.90;;;;;;6241660;23;20361;-61
2024/03/02 09:25:48;;;;;;;38.45;25.85;;;12.10;99.90;;;;;;6243371;23;20016;-61
2024/03/02 09:28:34;;;;;;;40.60;27.38;;;12.10;99.90;;;;;;6240987;23;20036;-62
2024/03/02 09:31:20;;;;;;;45.55;28.88;;;12.10;99.90;;;;;;6220721;23;20016;-60
2024/03/02 09:34:06;;;;;;;40.63;27.63;;;12.10;99.90;;;;;;6217454;23;20345;-61
2024/03/02 09:36:52;;;;;;;40.22;26.65;;;12.20;99.90;;;;;;6243446;23;20012;-61
2024/03/02 09:39:38;;;;;;;40.13;27.10;;;12.20;99.90;;;;;;6242016;23;20031;-62
2024/03/02 09:42:24;;;;;;;37.50;26.55;;;12.30;99.90;;;;;;6241856;23;20018;-61
2024/03/02 09:45:10;;;;;;;38.78;25.17;;;12.30;99.90;;;;;;6243416;23;20055;-62
2024/03/02 09:47:56;;;;;;;40.08;24.88;;;12.40;99.90;;;;;;6244032;23;20012;-61
2024/03/02 09:50:43;;;;;;;37.05;23.90;;;12.50;99.90;;;;;;6243051;23;20480;-61
2024/03/02 09:53:33;;;;;;;39.35;25.10;;;12.60;99.90;;;;;;6240505;23;20035;-62
2024/03/02 09:56:21;;;;;;;37.25;23.73;;;12.70;99.90;;;;;;6242325;23;20016;-62
2024/03/02 09:59:07;;;;;;;40.97;25.05;;;12.80;99.90;;;;;;6242187;23;20016;-62
2024/03/02 10:02:00;;;;;;;35.22;24.00;;;12.90;99.90;;;;;;6244068;22;20023;-62
2024/03/02 10:04:49;;;;;;;32.78;22.50;;;12.90;99.90;;;;;;6240196;23;20042;-62
2024/03/02 10:07:35;;;;;;;31.15;22.42;;;13.00;99.90;;;;;;6240746;23;20009;-62
2024/03/02 10:10:21;;;;;;;33.80;23.15;;;13.10;99.90;;;;;;6241956;23;20073;-61
2024/03/02 10:13:11;;;;;;;34.80;24.02;;;13.20;99.90;;;;;;6241765;23;20202;-62
2024/03/02 10:16:12;;;;;;;34.55;22.80;;;13.20;99.90;;;;;;6239928;23;20008;-61
2024/03/02 10:18:58;;;;;;;29.83;20.90;;;13.30;99.90;;;;;;6243428;23;20448;-62
2024/03/02 10:21:51;;;;;;;32.10;22.17;;;13.40;99.90;;;;;;6242298;23;20020;-62
2024/03/02 10:24:46;;;;;;;30.88;21.30;;;13.50;99.90;;;;;;6238834;23;20091;-62
2024/03/02 10:27:34;;;;;;;30.85;20.85;;;13.50;99.90;;;;;;6242292;23;20491;-61
2024/03/02 10:30:20;;;;;;;25.33;18.60;;;13.60;99.90;;;;;;6241003;23;20016;-62
2024/03/02 10:33:06;;;;;;;27.25;18.83;;;13.60;99.90;;;;;;6238468;23;20012;-62
2024/03/02 10:35:52;;;;;;;25.63;18.13;;;13.70;99.90;;;;;;6222558;23;20012;-62
2024/03/02 10:38:41;;;;;;;28.23;18.13;;;13.70;99.90;;;;;;6239317;23;20008;-62
2024/03/02 10:41:27;;;;;;;28.25;18.77;;;13.80;99.90;;;;;;6242031;23;20039;-61
2024/03/02 10:44:14;;;;;;;24.30;17.13;;;13.80;99.90;;;;;;6240198;23;20012;-62
2024/03/02 10:47:02;;;;;;;24.88;16.70;;;13.90;99.90;;;;;;6242825;23;20194;-62
2024/03/02 10:49:49;;;;;;;30.15;18.02;;;14.00;99.90;;;;;;6241163;23;20020;-61
2024/03/02 10:52:36;;;;;;;22.38;16.00;;;14.00;99.90;;;;;;6238294;23;20004;-61
2024/03/02 10:55:22;;;;;;;29.65;17.58;;;14.10;99.90;;;;;;6241425;23;20099;-61
2024/03/02 10:58:12;;;;;;;24.02;15.68;;;14.10;99.90;;;;;;6240348;23;20043;-60
2024/03/02 11:01:02;;;;;;;26.90;16.05;;;14.20;99.90;;;;;;6243519;23;20102;-61
2024/03/02 11:03:48;;;;;;;24.92;15.95;;;14.30;99.90;;;;;;6240007;23;20012;-61
2024/03/02 11:06:38;;;;;;;22.85;15.43;;;14.30;99.90;;;;;;6241676;23;20103;-61
2024/03/02 11:09:27;;;;;;;23.48;16.27;;;14.30;99.90;;;;;;6240994;23;20012;-61
2024/03/02 11:12:22;;;;;;;24.88;16.83;;;14.40;99.90;;;;;;6237703;23;20000;-61
2024/03/02 11:15:11;;;;;;;21.33;15.63;;;14.40;99.90;;;;;;6242147;23;20008;-61
2024/03/02 11:17:58;;;;;;;24.23;16.10;;;14.40;99.90;;;;;;6242479;23;20012;-61
2024/03/02 11:20:44;;;;;;;24.38;15.23;;;14.50;99.90;;;;;;6239538;23;20053;-61
2024/03/02 11:23:35;;;;;;;24.33;15.40;;;14.60;99.90;;;;;;6240975;23;20007;-61
2024/03/02 11:26:23;;;;;;;24.27;17.63;;;14.60;99.90;;;;;;6240419;23;20326;-61
2024/03/02 11:29:36;;;;;;;23.27;15.82;;;14.70;99.90;;;;;;6240666;23;20390;-62
2024/03/02 11:32:25;;;;;;;24.35;16.02;;;14.70;99.90;;;;;;6239630;23;20012;-61
2024/03/02 11:35:12;;;;;;;23.80;15.50;;;14.80;99.90;;;;;;6238353;23;20437;-61
2024/03/02 11:37:58;;;;;;;24.63;16.60;;;14.80;99.90;;;;;;6241213;23;20085;-62
2024/03/02 11:40:44;;;;;;;23.10;14.85;;;14.80;99.90;;;;;;6243195;23;20031;-60
2024/03/02 11:43:32;;;;;;;25.25;16.88;;;14.90;99.90;;;;;;6242939;23;20004;-62
2024/03/02 11:46:21;;;;;;;23.52;14.52;;;15.00;99.70;;;;;;6244615;23;20325;-62
2024/03/02 11:49:09;;;;;;;25.77;15.73;;;15.00;99.60;;;;;;6240315;23;20036;-61
2024/03/02 11:52:02;;;;;;;21.08;14.55;;;15.00;99.50;;;;;;6240448;23;20042;-62
2024/03/02 11:54:48;;;;;;;22.00;14.52;;;15.00;99.30;;;;;;6241322;23;20113;-62
2024/03/02 11:57:35;;;;;;;22.75;14.32;;;15.10;99.30;;;;;;6242457;23;20015;-61
2024/03/02 12:00:21;;;;;;;20.08;13.35;;;15.10;99.10;;;;;;6239954;23;20027;-61
2024/03/02 12:03:09;;;;;;;22.25;14.23;;;15.20;98.80;;;;;;6240878;23;20039;-62
2024/03/02 12:05:55;;;;;;;21.05;14.18;;;15.10;98.80;;;;;;6235594;23;20020;-61
2024/03/02 12:08:41;;;;;;;22.98;14.77;;;15.20;98.80;;;;;;6243381;23;20016;-61
2024/03/02 12:11:27;;;;;;;23.48;14.07;;;15.20;98.70;;;;;;6238101;23;20039;-61
2024/03/02 12:14:13;;;;;;;22.65;15.40;;;15.30;98.70;;;;;;6239468;23;20019;-62
2024/03/02 12:16:59;;;;;;;21.17;14.73;;;15.30;98.60;;;;;;6243618;23;20036;-61
2024/03/02 12:19:45;;;;;;;22.15;15.80;;;15.40;98.50;;;;;;6237117;23;20051;-61
2024/03/02 12:22:31;;;;;;;20.70;14.00;;;15.50;98.50;;;;;;6242318;23;20498;-61
2024/03/02 12:25:19;;;;;;;21.90;13.55;;;15.50;98.40;;;;;;6239593;23;20023;-60
2024/03/02 12:28:05;;;;;;;23.33;15.02;;;15.60;98.30;;;;;;6241964;23;20008;-61
2024/03/02 12:30:51;;;;;;;20.15;13.70;;;15.60;97.90;;;;;;6239077;23;20340;-61
2024/03/02 12:33:37;;;;;;;20.17;13.23;;;15.60;97.80;;;;;;6241657;23;20020;-61
2024/03/02 12:36:23;;;;;;;19.42;13.30;;;15.60;97.70;;;;;;6238781;23;20346;-63
2024/03/02 12:39:12;;;;;;;20.55;13.90;;;15.60;97.70;;;;;;6242677;23;20431;-60
2024/03/02 12:41:58;;;;;;;20.55;13.70;;;15.60;97.80;;;;;;6238980;23;20026;-62
2024/03/02 12:44:44;;;;;;;19.58;12.48;;;15.70;97.70;;;;;;6239474;23;20008;-60
2024/03/02 12:47:30;;;;;;;19.63;12.90;;;15.70;97.70;;;;;;6217844;23;20436;-61
2024/03/02 12:50:16;;;;;;;21.50;13.30;;;15.80;97.70;;;;;;6241117;23;20087;-61
2024/03/02 12:53:02;;;;;;;20.48;14.70;;;15.80;97.70;;;;;;6239179;23;20008;-61
2024/03/02 12:55:48;;;;;;;23.02;12.30;;;15.90;97.40;;;;;;6239190;23;20019;-61
2024/03/02 12:58:41;;;;;;;23.55;13.23;;;16.00;97.40;;;;;;6240024;23;20016;-61
2024/03/02 13:01:27;;;;;;;18.15;12.48;;;16.00;97.30;;;;;;6242256;23;20020;-61
2024/03/02 13:04:13;;;;;;;17.67;12.40;;;16.10;97.20;;;;;;6240457;22;20034;-60
2024/03/02 13:06:59;;;;;;;19.13;10.88;;;16.20;96.90;;;;;;6240744;23;20012;-61
2024/03/02 13:09:46;;;;;;;16.00;10.60;;;16.20;96.90;;;;;;6242163;23;20058;-60
2024/03/02 13:12:33;;;;;;;19.55;11.63;;;16.20;96.70;;;;;;6239556;23;20383;-61
2024/03/02 13:15:19;;;;;;;16.95;11.23;;;16.30;96.60;;;;;;6242148;23;20030;-61
2024/03/02 13:18:07;;;;;;;16.80;11.70;;;16.30;96.30;;;;;;6240869;23;20012;-60
2024/03/02 13:20:53;;;;;;;23.42;13.18;;;16.30;96.20;;;;;;6239389;23;20017;-61
2024/03/02 13:23:39;;;;;;;17.50;11.45;;;16.30;96.00;;;;;;6238640;23;20440;-61
2024/03/02 13:26:25;;;;;;;18.52;12.00;;;16.40;95.90;;;;;;6238395;23;20091;-62
2024/03/02 13:29:11;;;;;;;19.35;12.55;;;16.40;96.00;;;;;;6240654;23;20082;-62
2024/03/02 13:31:57;;;;;;;16.33;10.02;;;16.50;96.00;;;;;;6219580;23;20020;-61
2024/03/02 13:34:43;;;;;;;14.75;10.20;;;16.50;95.40;;;;;;6240522;23;20035;-61
2024/03/02 13:37:29;;;;;;;16.13;10.68;;;16.40;95.10;;;;;;6241491;23;20035;-60
2024/03/02 13:40:19;;;;;;;17.45;12.07;;;16.40;95.10;;;;;;6239612;23;20020;-60
2024/03/02 13:43:05;;;;;;;17.45;10.52;;;16.40;95.00;;;;;;6240974;23;20015;-61
2024/03/02 13:45:52;;;;;;;15.88;10.43;;;16.30;95.00;;;;;;6239210;23;20012;-69
2024/03/02 13:48:38;;;;;;;15.35;11.00;;;16.30;95.00;;;;;;6241217;23;20015;-70
2024/03/02 13:51:25;;;;;;;15.32;9.70;;;16.30;94.90;;;;;;6241480;23;20012;-69
2024/03/02 13:54:11;;;;;;;18.77;10.63;;;16.30;94.80;;;;;;6241200;23;20004;-73
2024/03/02 13:57:00;;;;;;;16.83;11.00;;;16.40;94.90;;;;;;6242385;23;20012;-61
2024/03/02 13:59:46;;;;;;;17.25;11.32;;;16.40;94.80;;;;;;6241004;23;20023;-61
2024/03/02 14:02:32;;;;;;;16.75;10.57;;;16.40;94.80;;;;;;6242811;23;20008;-66
2024/03/02 14:05:19;;;;;;;16.80;9.82;;;16.40;94.80;;;;;;6242255;23;20349;-65
2024/03/02 14:08:05;;;;;;;14.50;9.93;;;16.50;94.70;;;;;;6241021;23;20012;-66
2024/03/02 14:10:51;;;;;;;14.52;9.57;;;16.50;94.70;;;;;;6242279;23;20022;-68